メインページ
METAR-TAF:

METAR-TAF

空港 :

大分空港

大分, 日本

緯度: 33-29N, 経度: 131-44E, 海抜: 5m

現時点の気象観測

当レポートは33分前の08:00(UTC)に作成
北西の風 6kt
気温 8°C
湿度 66%
気圧 1025 hPa
視程10km以上
高度2500ftの雲はほとんどない
高度5000ftの千切れ雲あり

METAR: RJFO 130800Z 31006KT 9999 FEW025 BKN050 08/02 Q1025

時間: 17:33 (08:33 UTC)

予報

当レポートは3時間28分前の05:05(UTC)に作成
予報は13日の 06時(UTC)から 14日の 12時(UTC)まで有効
北西の風 10kt
視程10km以上
高度3000ftの雲はほとんどない
高度5000ftの雲は散在している
13日の 09時(UTC)から 13日の 11時(UTC)まで徐々に
西の風 6kt
13日の 15時(UTC)から 13日の 17時(UTC)まで徐々に
西/北西の風 9kt

TAF: RJFO 130505Z 1306/1412 31010KT 9999 FEW030 SCT050 BECMG 1309/1311 26006KT BECMG 1315/1317 30009KT

4,000以上の空港の気象観測と天気予報(METAR報とTAF報)

利用可能な観測所は地図上に黄色い丸と赤い丸で示す。

丸の上にカーソルを重ねると観測所名を参照できる。

次にクリックすると気象観測と天気予報を参照できる。

マップの切り替え:黒色「×」印の緑ボタンをクリックして拡大、「-」印の緑ボタンをクリックして縮小、緑色の三角印をクリックして隣りの地図に切り替え


METAR-TAF: